Time;durP1;ratioP1;P1;durP2;ratioP2;P2;SDS_P1;SDS_P2;PMS_P1;PMS_P2;Temp;Humidity;BMP_temperature;BMP_pressure;BME280_temperature;BME280_humidity;BME280_pressure;Samples;Min_cycle;Max_cycle;Signal;HPM_P1;HPM_P2
2022/11/17 00:01:09;;;;;;;2.70;1.40;;;9.70;99.90;;;10.28;100.00;96093.13;5002971;28;20877;-89
2022/11/17 00:03:38;;;;;;;5.33;2.70;;;9.70;99.90;;;10.28;100.00;96079.28;5006749;28;20546;-90
2022/11/17 00:06:09;;;;;;;6.43;1.70;;;9.70;99.90;;;10.28;100.00;96079.28;5000457;28;20947;-90
2022/11/17 00:08:38;;;;;;;4.77;1.43;;;9.70;99.90;;;10.28;100.00;96074.84;5002571;28;20533;-90
2022/11/17 00:11:08;;;;;;;2.60;1.23;;;9.70;99.90;;;10.27;100.00;96062.84;5003478;28;20996;-90
2022/11/17 00:16:27;;;;;;;4.57;1.53;;;9.60;99.90;;;10.28;100.00;96067.00;5004131;28;20472;-89
2022/11/17 00:21:43;;;;;;;1.53;1.03;;;9.80;99.90;;;10.30;100.00;96057.16;5000646;28;20906;-89
2022/11/17 00:24:16;;;;;;;5.50;1.30;;;9.80;99.90;;;10.31;100.00;96044.88;5000791;28;20496;-90
2022/11/17 00:29:41;;;;;;;6.80;1.57;;;9.80;99.90;;;10.29;100.00;96052.94;5012678;28;20588;-90
2022/11/17 00:35:00;;;;;;;4.33;1.30;;;9.70;99.90;;;10.32;100.00;96046.44;4997237;28;20464;-89
2022/11/17 00:37:36;;;;;;;2.23;1.20;;;9.80;99.90;;;10.31;100.00;96035.19;4992432;28;20878;-90
2022/11/17 00:40:10;;;;;;;1.90;1.30;;;9.90;99.90;;;10.31;100.00;96029.19;4997652;28;20463;-89
2022/11/17 00:42:39;;;;;;;4.90;1.30;;;9.80;99.90;;;10.31;100.00;96024.75;4995584;28;20476;-89
2022/11/17 00:45:12;;;;;;;2.70;0.90;;;9.80;99.90;;;10.31;100.00;96016.91;5017533;28;20472;-90
2022/11/17 00:47:42;;;;;;;3.87;1.30;;;9.90;99.90;;;10.32;100.00;96012.47;4990283;28;20479;-89
2022/11/17 00:50:12;;;;;;;1.43;1.10;;;9.80;99.90;;;10.32;100.00;96010.66;4996278;28;21401;-89
2022/11/17 00:52:42;;;;;;;1.53;1.33;;;9.80;99.90;;;10.32;100.00;95989.78;4995153;28;20570;-89
2022/11/17 00:55:12;;;;;;;6.53;1.30;;;9.90;99.90;;;10.32;100.00;95984.53;4983575;28;20475;-89
2022/11/17 00:57:42;;;;;;;1.00;0.90;;;9.80;99.90;;;10.32;100.00;95986.34;4988520;28;21013;-88
2022/11/17 01:00:14;;;;;;;1.20;0.83;;;9.80;99.90;;;10.33;100.00;95985.34;4992669;28;20443;-89
2022/11/17 01:02:44;;;;;;;1.00;0.90;;;9.80;99.90;;;10.33;100.00;95975.69;4990467;28;21040;-89
2022/11/17 01:05:14;;;;;;;5.60;1.57;;;9.90;99.90;;;10.31;100.00;95972.50;5034030;28;21018;-89
2022/11/17 01:07:45;;;;;;;2.07;1.20;;;9.80;99.90;;;10.31;100.00;95966.50;4993897;28;20471;-88
2022/11/17 01:10:16;;;;;;;5.80;1.30;;;9.80;99.90;;;10.28;100.00;95961.72;4989409;28;20464;-89
2022/11/17 01:12:45;;;;;;;1.80;1.37;;;9.80;99.90;;;10.30;100.00;95960.50;4991664;28;20460;-89
2022/11/17 01:15:16;;;;;;;2.53;1.17;;;9.80;99.90;;;10.32;100.00;95950.59;4997804;28;20514;-89
2022/11/17 01:17:47;;;;;;;1.10;1.00;;;9.80;99.90;;;10.32;100.00;95940.13;4998102;28;20464;-89
2022/11/17 01:20:16;;;;;;;1.03;1.00;;;9.90;99.90;;;10.31;100.00;95938.53;4995674;28;20503;-89
2022/11/17 01:22:46;;;;;;;1.10;0.90;;;9.90;99.90;;;10.31;100.00;95938.53;4995577;28;20464;-89
2022/11/17 01:25:17;;;;;;;1.30;1.07;;;9.90;99.90;;;10.32;100.00;95919.22;4988804;28;20560;-89
2022/11/17 01:27:47;;;;;;;0.87;0.87;;;9.80;99.90;;;10.32;100.00;95919.22;4990585;28;20492;-89
2022/11/17 01:30:19;;;;;;;1.00;0.90;;;9.80;99.90;;;10.34;100.00;95924.25;5003394;28;20489;-89
2022/11/17 01:32:49;;;;;;;4.80;1.40;;;9.80;99.90;;;10.33;100.00;95928.66;4994784;28;20459;-90
2022/11/17 01:35:20;;;;;;;2.97;0.80;;;9.80;99.90;;;10.33;100.00;95927.88;4989988;28;20910;-90
2022/11/17 01:37:51;;;;;;;8.40;1.20;;;9.80;99.90;;;10.36;100.00;95911.72;4984939;28;20460;-89
2022/11/17 01:40:22;;;;;;;2.20;1.30;;;9.90;99.90;;;10.32;100.00;95913.22;4984763;28;20506;-89
2022/11/17 01:42:50;;;;;;;7.70;1.43;;;9.90;99.90;;;10.32;100.00;95900.94;4981231;28;20559;-89
2022/11/17 01:45:24;;;;;;;1.70;1.07;;;9.80;99.90;;;10.35;100.00;95891.84;4980307;28;20546;-89
2022/11/17 01:48:02;;;;;;;1.73;1.10;;;9.90;99.90;;;10.34;100.00;95898.91;4973300;28;20475;-89
2022/11/17 01:50:37;;;;;;;1.40;1.10;;;9.80;99.90;;;10.33;100.00;95906.97;4978985;28;20939;-89
2022/11/17 01:53:10;;;;;;;4.00;1.93;;;9.80;99.90;;;10.34;100.00;95892.88;4980152;28;20491;-89
2022/11/17 01:55:46;;;;;;;4.00;1.00;;;9.90;99.90;;;10.34;100.00;95880.63;4982177;28;20888;-89
2022/11/17 01:58:21;;;;;;;3.47;1.37;;;9.90;99.90;;;10.32;100.00;95874.84;4983021;28;21024;-90
2022/11/17 02:00:54;;;;;;;3.33;1.40;;;9.80;99.90;;;10.36;100.00;95865.50;4977280;28;20527;-89
2022/11/17 02:03:26;;;;;;;1.20;1.10;;;9.90;99.90;;;10.32;100.00;95861.78;4974486;28;20539;-90
2022/11/17 02:06:04;;;;;;;4.30;1.30;;;9.80;99.90;;;10.35;100.00;95852.66;4976129;28;20466;-89
2022/11/17 02:08:39;;;;;;;3.67;1.40;;;9.80;99.90;;;10.32;100.00;95864.38;4979496;28;20503;-89
2022/11/17 02:11:15;;;;;;;2.60;1.63;;;9.80;99.90;;;10.31;100.00;95857.56;4971269;28;20443;-89
2022/11/17 02:13:46;;;;;;;6.70;1.00;;;9.80;99.90;;;10.32;100.00;95856.53;4973949;28;20480;-89
2022/11/17 02:16:19;;;;;;;2.80;1.37;;;9.80;99.90;;;10.34;100.00;95879.81;4987596;28;20549;-89
2022/11/17 02:18:50;;;;;;;2.83;1.30;;;9.80;99.90;;;10.32;100.00;95881.88;4977771;28;20503;-89
2022/11/17 02:22:09;;;;;;;2.17;1.53;;;9.70;99.90;;;10.33;100.00;95871.19;4978113;28;20551;-89
2022/11/17 02:25:17;;;;;;;3.73;1.60;;;9.80;99.90;;;10.35;100.00;95866.50;4977390;28;20499;-89
2022/11/17 02:28:09;;;;;;;2.07;1.00;;;9.80;99.90;;;10.36;100.00;95860.25;4976063;28;20472;-90
2022/11/17 02:30:53;;;;;;;7.23;1.33;;;9.80;99.90;;;10.33;100.00;95858.13;4980446;28;20464;-89
2022/11/17 02:33:35;;;;;;;2.30;1.30;;;9.80;99.90;;;10.31;100.00;95854.19;4971772;28;20546;-89
2022/11/17 02:36:15;;;;;;;1.60;1.50;;;9.80;99.90;;;10.32;100.00;95864.38;4976711;28;20464;-89
2022/11/17 02:38:54;;;;;;;3.07;1.47;;;9.90;99.90;;;10.31;100.00;95852.34;4985842;28;20508;-89
2022/11/17 02:41:30;;;;;;;3.13;1.30;;;9.80;99.90;;;10.32;100.00;95832.25;4977299;28;20875;-88
2022/11/17 02:44:09;;;;;;;5.43;1.40;;;9.90;99.90;;;10.31;100.00;95823.59;4977269;28;20469;-88
2022/11/17 02:46:46;;;;;;;2.20;1.40;;;9.80;99.90;;;10.34;100.00;95814.53;4979084;28;20479;-89
2022/11/17 02:49:23;;;;;;;3.90;1.33;;;9.90;99.90;;;10.33;100.00;95813.72;4973995;28;20552;-89
2022/11/17 02:51:57;;;;;;;5.73;1.20;;;9.90;99.90;;;10.34;100.00;95806.69;4973539;28;20475;-89
2022/11/17 02:54:30;;;;;;;7.60;1.50;;;9.80;99.90;;;10.35;100.00;95803.81;4990072;28;20500;-90
2022/11/17 02:57:00;;;;;;;6.77;1.80;;;9.90;99.90;;;10.33;100.00;95800.66;4989899;28;20503;-89
2022/11/17 02:59:37;;;;;;;3.83;1.37;;;9.80;99.90;;;10.35;100.00;95790.75;5011644;28;20496;-90
2022/11/17 03:02:59;;;;;;;2.40;1.20;;;9.80;99.90;;;10.35;100.00;95790.75;4998297;28;20456;-89
2022/11/17 03:05:41;;;;;;;1.47;1.33;;;9.80;99.90;;;10.33;100.00;95792.03;4979046;28;20544;-88
2022/11/17 03:08:28;;;;;;;5.83;1.43;;;9.80;99.90;;;10.32;100.00;95786.00;4972814;28;20522;-89
2022/11/17 03:11:04;;;;;;;3.80;1.50;;;9.80;99.90;;;10.33;100.00;95794.66;4970634;28;20472;-88
2022/11/17 03:13:50;;;;;;;1.90;1.50;;;9.80;99.90;;;10.32;100.00;95791.25;4978473;28;20973;-89
2022/11/17 03:16:30;;;;;;;8.00;1.27;;;9.90;99.90;;;10.33;100.00;95803.28;5000050;28;20472;-89
2022/11/17 03:19:10;;;;;;;1.37;1.17;;;9.80;99.90;;;10.34;100.00;95812.69;4977078;28;20553;-89
2022/11/17 03:21:48;;;;;;;1.70;1.43;;;9.80;99.90;;;10.35;100.00;95798.59;4987442;28;20970;-89
2022/11/17 03:24:23;;;;;;;9.40;1.20;;;9.90;99.90;;;10.35;100.00;95795.19;4977504;28;20469;-89
2022/11/17 03:26:59;;;;;;;2.00;1.37;;;9.80;99.90;;;10.35;100.00;95790.75;4975887;28;20489;-88
2022/11/17 03:29:34;;;;;;;1.97;1.60;;;9.80;99.90;;;10.34;100.00;95789.19;4965963;28;20500;-89
2022/11/17 03:32:11;;;;;;;4.50;1.50;;;9.80;99.90;;;10.36;100.00;95781.09;4983284;28;20498;-89
2022/11/17 03:34:48;;;;;;;3.63;1.20;;;9.80;99.90;;;10.36;100.00;95792.34;4983436;28;20464;-90
2022/11/17 03:37:23;;;;;;;1.27;1.17;;;9.80;99.90;;;10.34;100.00;95789.19;4985475;28;20486;-89
2022/11/17 03:39:58;;;;;;;3.27;1.23;;;9.80;99.90;;;10.36;100.00;95784.50;4986337;28;20469;-89
2022/11/17 03:42:32;;;;;;;3.20;1.57;;;9.90;99.90;;;10.36;100.00;95789.72;4995014;28;20876;-89
2022/11/17 03:45:09;;;;;;;1.73;1.00;;;9.80;99.90;;;10.38;100.00;95792.09;4968785;28;20879;-89
2022/11/17 03:47:43;;;;;;;4.60;1.30;;;9.80;99.90;;;10.39;100.00;95802.31;4977395;28;20560;-89
2022/11/17 03:50:18;;;;;;;2.37;1.20;;;10.00;99.90;;;10.40;100.00;95814.34;4969253;28;20534;-90
2022/11/17 03:52:49;;;;;;;1.97;1.27;;;10.00;99.90;;;10.40;100.00;95811.72;4969949;28;20476;-88
2022/11/17 03:55:19;;;;;;;1.90;1.20;;;10.00;99.90;;;10.42;100.00;95801.03;4968904;28;20811;-89
2022/11/17 03:57:55;;;;;;;3.47;1.60;;;10.00;99.90;;;10.43;100.00;95802.63;4968986;28;22439;-88
2022/11/17 04:00:25;;;;;;;1.13;1.00;;;10.00;99.90;;;10.43;100.00;95807.84;4965756;28;20544;-88
2022/11/17 04:02:58;;;;;;;2.80;1.10;;;10.00;99.90;;;10.42;100.00;95809.66;4976043;28;20469;-90
2022/11/17 04:05:28;;;;;;;1.53;1.20;;;9.90;99.90;;;10.43;100.00;95808.63;4978789;28;20535;-89
2022/11/17 04:07:58;;;;;;;2.27;1.37;;;10.00;99.90;;;10.45;100.00;95787.47;4972759;28;20455;-88
2022/11/17 04:10:27;;;;;;;1.73;1.17;;;10.00;99.90;;;10.47;100.00;95761.91;4969560;28;20496;-88
2022/11/17 04:15:57;;;;;;;2.30;1.00;;;10.10;99.90;;;10.42;100.00;95746.16;5013675;28;20807;-88
2022/11/17 04:18:28;;;;;;;1.23;0.97;;;10.00;99.90;;;10.45;100.00;95738.63;4980053;28;20468;-87
2022/11/17 04:20:58;;;;;;;6.10;1.20;;;10.10;99.90;;;10.41;100.00;95742.75;4974016;28;20552;-89
2022/11/17 04:23:28;;;;;;;1.23;1.13;;;10.00;99.90;;;10.42;100.00;95754.78;4971658;28;20492;-88
2022/11/17 04:28:49;;;;;;;28.30;13.77;;;10.00;99.90;;;10.43;100.00;95761.59;4972305;28;20558;-88
2022/11/17 04:31:22;;;;;;;4.00;2.03;;;10.00;99.90;;;10.41;100.00;95752.44;4984057;28;20576;-88
2022/11/17 04:33:56;;;;;;;2.20;1.23;;;9.90;99.90;;;10.39;100.00;95757.91;4967008;28;20904;-88
2022/11/17 04:36:30;;;;;;;2.90;1.00;;;10.00;99.90;;;10.37;100.00;95749.53;4977961;28;21111;-88
2022/11/17 04:39:00;;;;;;;7.60;4.23;;;9.90;99.90;;;10.38;100.00;95742.44;4971052;28;20459;-90
2022/11/17 04:44:18;;;;;;;1.27;0.80;;;9.90;99.90;;;10.37;100.00;95743.50;4974411;28;20543;-89
2022/11/17 04:46:47;;;;;;;1.17;1.00;;;10.00;99.90;;;10.36;100.00;95734.06;4979486;28;20503;-90
2022/11/17 04:49:19;;;;;;;2.30;1.00;;;9.90;99.90;;;10.35;100.00;95748.97;4975127;28;20457;-89
2022/11/17 04:51:51;;;;;;;1.10;0.90;;;9.90;99.90;;;10.33;100.00;95730.13;4985942;28;20571;-89
2022/11/17 04:54:25;;;;;;;0.80;0.77;;;9.80;99.90;;;10.33;100.00;95724.13;4968173;28;21214;-80
2022/11/17 04:56:55;;;;;;;19.80;9.87;;;9.80;99.90;;;10.32;100.00;95733.78;4972869;28;20469;-88
2022/11/17 04:59:25;;;;;;;1.97;1.30;;;9.70;99.90;;;10.30;100.00;95725.41;4968608;28;21084;-90
2022/11/17 05:01:55;;;;;;;2.33;1.20;;;9.70;99.90;;;10.31;100.00;95705.28;4971927;28;20547;-88
2022/11/17 05:07:18;;;;;;;1.10;0.80;;;9.70;99.90;;;10.33;100.00;95722.31;4977624;28;20606;-88
2022/11/17 05:09:47;;;;;;;1.63;0.80;;;9.70;99.90;;;10.33;100.00;95724.13;4973931;28;20890;-88
2022/11/17 05:15:06;;;;;;;2.97;1.00;;;9.70;99.90;;;10.31;100.00;95720.97;4979840;28;20476;-89
2022/11/17 05:17:34;;;;;;;0.97;0.97;;;9.70;99.90;;;10.31;100.00;95716.50;4977116;28;20518;-88
2022/11/17 05:20:08;;;;;;;2.73;1.33;;;9.80;99.90;;;10.31;100.00;95715.75;4972998;28;21014;-88
2022/11/17 05:25:26;;;;;;;2.67;1.30;;;9.80;99.90;;;10.34;100.00;95705.59;4968194;28;20464;-88
2022/11/17 05:27:56;;;;;;;6.10;1.67;;;9.90;99.90;;;10.37;100.00;95699.88;4974559;28;21115;-89
2022/11/17 05:30:26;;;;;;;6.17;1.40;;;9.90;99.90;;;10.40;100.00;95699.41;4974156;28;20496;-88
2022/11/17 05:32:56;;;;;;;5.43;1.47;;;10.00;99.90;;;10.43;100.00;95698.13;4972427;28;20464;-88
2022/11/17 05:35:27;;;;;;;2.37;1.40;;;10.10;99.90;;;10.47;100.00;95694.78;4984163;28;20477;-87
2022/11/17 05:37:57;;;;;;;4.43;1.40;;;10.10;99.90;;;10.45;100.00;95696.03;4978673;28;21005;-88
2022/11/17 05:40:27;;;;;;;8.80;1.73;;;10.00;99.90;;;10.49;100.00;95708.38;4971380;28;20471;-87
2022/11/17 05:42:57;;;;;;;4.10;1.50;;;10.10;99.90;;;10.50;100.00;95709.16;4974455;28;20472;-89
2022/11/17 05:45:27;;;;;;;4.67;1.53;;;10.10;99.90;;;10.50;100.00;95715.19;4975448;28;20505;-88
2022/11/17 05:47:57;;;;;;;7.10;1.60;;;10.10;99.90;;;10.54;100.00;95712.88;4975084;28;20554;-87
2022/11/17 05:50:29;;;;;;;10.67;1.87;;;10.10;99.90;;;10.54;100.00;95713.69;4965000;28;20485;-88
2022/11/17 05:53:00;;;;;;;9.17;1.90;;;10.10;99.90;;;10.57;100.00;95705.34;4973238;28;20530;-79
2022/11/17 05:55:31;;;;;;;7.80;3.03;;;10.20;99.90;;;10.57;100.00;95710.56;4973557;28;20484;-81
2022/11/17 05:58:06;;;;;;;4.97;1.50;;;10.10;99.90;;;10.64;100.00;95712.19;4972545;28;20460;-80
2022/11/17 06:00:37;;;;;;;3.27;1.20;;;10.20;99.90;;;10.65;100.00;95722.41;4972058;28;20540;-81
2022/11/17 06:03:16;;;;;;;308.30;142.43;;;10.30;99.90;;;10.67;100.00;95719.53;4973537;28;20463;-81
2022/11/17 06:05:48;;;;;;;6.13;3.10;;;10.30;99.90;;;10.68;100.00;95713.28;4975909;28;20507;-80
2022/11/17 06:08:21;;;;;;;6.83;1.60;;;10.30;99.90;;;10.68;100.00;95714.09;4983162;28;20958;-80
2022/11/17 06:10:51;;;;;;;3.93;1.73;;;10.30;99.90;;;10.70;100.00;95719.06;4971639;28;20603;-80
2022/11/17 06:13:27;;;;;;;6.97;1.90;;;10.30;99.90;;;10.71;100.00;95716.22;4972220;28;20460;-80
2022/11/17 06:16:00;;;;;;;2.60;1.77;;;10.30;99.90;;;10.72;100.00;95706.53;4969316;28;20894;-79
2022/11/17 06:18:33;;;;;;;13.43;4.63;;;10.30;99.90;;;10.73;100.00;95708.09;4970279;28;20505;-80
2022/11/17 06:21:08;;;;;;;3.60;1.77;;;10.30;99.90;;;10.72;100.00;95717.00;4967248;28;20476;-80
2022/11/17 06:23:38;;;;;;;4.83;1.60;;;10.30;99.90;;;10.70;100.00;95709.38;4971396;28;21022;-80
2022/11/17 06:26:11;;;;;;;5.13;1.70;;;10.30;99.90;;;10.71;100.00;95710.19;4973209;28;20472;-80
2022/11/17 06:28:45;;;;;;;6.50;1.80;;;10.30;99.90;;;10.71;100.00;95721.44;4970384;28;20532;-80
2022/11/17 06:31:16;;;;;;;8.63;1.53;;;10.30;99.90;;;10.71;100.00;95708.38;4965439;28;20570;-80
2022/11/17 06:33:46;;;;;;;5.97;1.70;;;10.30;99.90;;;10.69;100.00;95707.03;4969737;28;21053;-80
2022/11/17 06:36:17;;;;;;;5.30;1.60;;;10.30;99.90;;;10.70;100.00;95719.84;4965566;28;20530;-80
2022/11/17 06:38:47;;;;;;;8.90;1.63;;;10.20;99.90;;;10.73;100.00;95711.50;4972316;28;20592;-81
2022/11/17 06:41:15;;;;;;;10.03;1.93;;;10.30;99.90;;;10.73;100.00;95710.72;4964200;28;20975;-80
2022/11/17 06:43:44;;;;;;;5.10;1.80;;;10.40;99.90;;;10.70;100.00;95705.97;4969587;28;21066;-81
2022/11/17 06:46:13;;;;;;;6.17;1.37;;;10.30;99.90;;;10.73;100.00;95708.91;4972787;28;20468;-80
2022/11/17 06:48:42;;;;;;;11.43;2.17;;;10.30;99.90;;;10.74;100.00;95717.53;4968255;28;20505;-80
2022/11/17 06:51:11;;;;;;;5.40;1.83;;;10.40;99.90;;;10.73;100.00;95724.59;4967088;28;20582;-80
2022/11/17 06:53:43;;;;;;;7.50;2.27;;;10.30;99.90;;;10.75;100.00;95721.72;4972123;28;20573;-81
2022/11/17 06:56:12;;;;;;;4.00;1.40;;;10.40;99.90;;;10.76;100.00;95720.72;4967918;28;20767;-80
2022/11/17 06:58:44;;;;;;;4.63;1.37;;;10.40;99.90;;;10.74;100.00;95720.94;4974938;28;20471;-80
2022/11/17 07:01:15;;;;;;;5.87;1.50;;;10.30;99.90;;;10.76;100.00;95724.09;4968284;28;20493;-80
2022/11/17 07:03:46;;;;;;;5.73;1.80;;;10.40;99.90;;;10.77;100.00;95727.50;4971308;28;20870;-80
2022/11/17 07:06:17;;;;;;;4.70;1.33;;;10.40;99.90;;;10.77;100.00;95732.72;4971585;28;20460;-80
2022/11/17 07:08:50;;;;;;;4.70;2.33;;;10.30;99.90;;;10.76;100.00;95728.56;4972645;28;20566;-80
2022/11/17 07:11:19;;;;;;;9.60;1.60;;;10.30;99.90;;;10.77;100.00;95735.34;4970100;28;20507;-80
2022/11/17 07:13:48;;;;;;;8.50;2.33;;;10.40;99.90;;;10.78;100.00;95736.94;4971990;28;20882;-80
2022/11/17 07:16:19;;;;;;;12.93;2.60;;;10.40;99.90;;;10.79;100.00;95733.28;4969505;28;20813;-80
2022/11/17 07:18:53;;;;;;;5.33;1.67;;;10.40;99.90;;;10.82;100.00;95732.78;4972122;28;21224;-80
2022/11/17 07:21:23;;;;;;;10.77;2.90;;;10.40;99.90;;;10.82;100.00;95735.41;4975378;28;20920;-81
2022/11/17 07:23:53;;;;;;;8.33;1.87;;;10.40;99.90;;;10.81;100.00;95746.88;4969235;28;20500;-80
2022/11/17 07:26:24;;;;;;;7.37;1.93;;;10.40;99.90;;;10.80;100.00;95740.06;4973202;28;20979;-80
2022/11/17 07:28:54;;;;;;;9.80;1.97;;;10.40;99.90;;;10.80;100.00;95745.31;4964420;28;20499;-80
2022/11/17 07:31:23;;;;;;;4.43;1.40;;;10.40;99.90;;;10.84;100.00;95738.56;4967553;28;20488;-80
2022/11/17 07:33:54;;;;;;;9.80;1.70;;;10.40;99.90;;;10.85;100.00;95754.00;4972971;28;20552;-80
2022/11/17 07:36:25;;;;;;;4.27;1.23;;;10.50;99.90;;;10.84;100.00;95757.66;4968243;28;20469;-80
2022/11/17 07:38:56;;;;;;;5.23;1.50;;;10.40;99.90;;;10.86;100.00;95752.19;4972464;28;20951;-80
2022/11/17 07:41:26;;;;;;;8.13;2.13;;;10.50;99.90;;;10.85;100.00;95758.44;4963555;28;20503;-80
2022/11/17 07:43:56;;;;;;;7.40;1.87;;;10.50;99.90;;;10.87;100.00;95757.16;4969649;28;20469;-80
2022/11/17 07:46:26;;;;;;;10.70;3.90;;;10.50;99.90;;;10.87;100.00;95758.97;4973378;28;20465;-82
2022/11/17 07:48:56;;;;;;;4.27;1.90;;;10.50;99.90;;;10.91;100.00;95767.91;4975367;28;20780;-81
2022/11/17 07:51:25;;;;;;;10.13;2.33;;;10.50;99.90;;;10.89;100.00;95752.50;4967654;28;20575;-81
2022/11/17 07:53:55;;;;;;;7.90;2.10;;;10.50;99.90;;;10.93;100.00;95760.63;4970933;28;20558;-80
2022/11/17 07:56:25;;;;;;;6.77;2.00;;;10.50;99.90;;;10.95;100.00;95771.63;4970247;28;20471;-80
2022/11/17 07:58:55;;;;;;;10.87;2.23;;;10.60;99.90;;;10.96;100.00;95775.81;4974243;28;20462;-80
2022/11/17 08:01:26;;;;;;;10.90;1.87;;;10.50;99.90;;;10.98;100.00;95785.00;4973433;28;20559;-81
2022/11/17 08:03:56;;;;;;;8.17;1.77;;;10.60;99.90;;;11.03;100.00;95777.22;4974286;28;20448;-80
2022/11/17 08:06:26;;;;;;;8.50;2.50;;;10.60;99.90;;;11.07;100.00;95782.75;4967126;28;20468;-80
2022/11/17 08:08:57;;;;;;;14.17;2.43;;;10.60;99.90;;;11.06;100.00;95786.41;4969307;28;20492;-81
2022/11/17 08:11:26;;;;;;;8.60;1.83;;;10.70;99.90;;;11.04;100.00;95788.44;4967878;28;20566;-80
2022/11/17 08:13:58;;;;;;;7.47;1.83;;;10.60;99.90;;;11.04;100.00;95796.28;4961184;28;21017;-80
2022/11/17 08:16:29;;;;;;;14.63;1.83;;;10.70;99.90;;;11.05;100.00;95790.03;4970989;28;20552;-79
2022/11/17 08:18:58;;;;;;;18.13;3.57;;;10.70;99.90;;;11.08;100.00;95794.78;4973904;28;20469;-79
2022/11/17 08:21:29;;;;;;;4.70;1.70;;;10.70;99.90;;;11.07;100.00;95798.44;4964857;28;20961;-80
2022/11/17 08:23:59;;;;;;;8.67;2.17;;;10.70;99.90;;;11.08;100.00;95805.22;4968019;28;21044;-79
2022/11/17 08:26:30;;;;;;;14.40;2.40;;;10.70;99.90;;;11.09;100.00;95814.66;4969152;28;20474;-79
2022/11/17 08:29:00;;;;;;;10.50;1.97;;;10.70;99.90;;;11.10;100.00;95811.81;4967861;28;20542;-79
2022/11/17 08:31:30;;;;;;;6.40;1.93;;;10.70;99.90;;;11.05;100.00;95816.19;4969842;28;20533;-79
2022/11/17 08:34:00;;;;;;;10.30;2.43;;;10.60;99.90;;;11.01;100.00;95810.66;4967179;28;21039;-80
2022/11/17 08:36:30;;;;;;;5.87;1.80;;;10.60;99.90;;;10.98;100.00;95816.38;4971746;28;20467;-79
2022/11/17 08:39:01;;;;;;;6.63;1.67;;;10.50;99.90;;;11.01;100.00;95820.31;4973450;28;20575;-79
2022/11/17 08:41:31;;;;;;;12.27;2.40;;;10.60;99.90;;;11.00;100.00;95813.53;4972919;28;20467;-79
2022/11/17 08:44:00;;;;;;;8.37;2.53;;;10.50;99.90;;;10.99;100.00;95815.34;4970995;28;21001;-79
2022/11/17 08:46:29;;;;;;;5.80;1.70;;;10.50;99.90;;;11.02;100.00;95814.06;4970557;28;20533;-79
2022/11/17 08:49:00;;;;;;;15.57;2.70;;;10.60;99.90;;;11.00;100.00;95819.53;4974729;28;20541;-79
2022/11/17 08:51:30;;;;;;;11.00;2.17;;;10.60;99.90;;;11.02;100.00;95816.69;4974232;28;21040;-79
2022/11/17 08:54:00;;;;;;;8.43;1.93;;;10.60;99.90;;;11.05;100.00;95816.97;4980777;28;20488;-79
2022/11/17 08:56:30;;;;;;;27.70;10.97;;;10.60;99.90;;;11.05;100.00;95826.66;4977092;28;20476;-80
2022/11/17 08:59:01;;;;;;;12.73;2.40;;;10.60;99.90;;;11.08;100.00;95826.94;4979162;28;20465;-80
2022/11/17 09:01:30;;;;;;;6.80;2.17;;;10.70;99.90;;;11.09;100.00;95825.94;4977224;28;20526;-80
2022/11/17 09:04:00;;;;;;;8.60;2.50;;;10.70;99.90;;;11.09;100.00;95832.97;4981943;28;20560;-80
2022/11/17 09:06:29;;;;;;;6.73;2.13;;;10.70;99.90;;;11.07;100.00;95832.44;4980304;28;20553;-79
2022/11/17 09:09:00;;;;;;;8.63;1.90;;;10.70;99.90;;;11.11;100.00;95836.13;4981414;28;20472;-79
2022/11/17 09:11:30;;;;;;;13.93;2.43;;;10.70;99.90;;;11.06;100.00;95844.72;4979827;28;20987;-80
2022/11/17 09:13:59;;;;;;;5.20;1.63;;;10.60;99.90;;;11.10;100.00;95858.91;4972614;28;20522;-79
2022/11/17 09:16:28;;;;;;;13.60;2.17;;;10.70;99.90;;;11.11;100.00;95852.63;4974308;28;20559;-80
2022/11/17 09:18:58;;;;;;;7.53;2.23;;;10.70;99.90;;;11.13;100.00;95860.22;4977329;28;20461;-79
2022/11/17 09:21:27;;;;;;;4.83;1.50;;;10.70;99.90;;;11.04;100.00;95866.91;4975687;28;20473;-79
2022/11/17 09:23:56;;;;;;;7.67;1.67;;;10.60;99.90;;;11.08;100.00;95868.00;4974082;28;20874;-80
2022/11/17 09:26:28;;;;;;;7.67;2.10;;;10.70;99.90;;;11.09;100.00;95861.75;4970296;28;20471;-80
2022/11/17 09:29:02;;;;;;;12.27;2.37;;;10.70;99.90;;;11.14;100.00;95866.25;4970321;28;20495;-80
2022/11/17 09:31:31;;;;;;;7.80;2.03;;;10.70;99.90;;;11.15;100.00;95875.66;4975200;28;20502;-79
2022/11/17 09:33:59;;;;;;;2.57;1.50;;;10.70;99.90;;;11.18;100.00;95875.97;4980819;28;20518;-80
2022/11/17 09:36:34;;;;;;;15.70;3.17;;;10.80;99.90;;;11.19;100.00;95885.41;4976549;28;20530;-79
2022/11/17 09:39:03;;;;;;;5.77;1.70;;;10.80;99.90;;;11.19;100.00;95893.25;4982223;28;20810;-79
2022/11/17 09:41:40;;;;;;;11.47;1.70;;;10.80;99.90;;;11.21;100.00;95878.09;4978282;28;20459;-80
2022/11/17 09:44:28;;;;;;;5.80;1.60;;;10.80;99.90;;;11.24;100.00;95882.88;4980433;28;20466;-80
2022/11/17 09:47:11;;;;;;;12.77;2.47;;;10.80;99.90;;;11.27;100.00;95892.84;4977183;28;20470;-80
2022/11/17 09:49:54;;;;;;;9.90;2.27;;;10.90;99.90;;;11.29;100.00;95901.22;4975947;28;20493;-80
2022/11/17 09:52:36;;;;;;;5.17;1.60;;;10.90;99.90;;;11.34;100.00;95890.03;4972774;28;20518;-79
2022/11/17 09:55:24;;;;;;;8.73;2.07;;;10.90;99.90;;;11.28;100.00;95883.94;4974579;28;20461;-80
2022/11/17 09:58:15;;;;;;;5.60;1.63;;;10.90;99.90;;;11.31;100.00;95886.09;4978615;28;20505;-79
2022/11/17 10:00:50;;;;;;;5.13;1.70;;;10.90;99.90;;;11.33;100.00;95886.63;4981354;28;20511;-79
2022/11/17 10:03:30;;;;;;;7.87;2.27;;;10.90;99.90;;;11.37;100.00;95890.34;4976227;28;20464;-79
2022/11/17 10:06:07;;;;;;;9.50;1.80;;;11.00;99.90;;;11.39;100.00;95897.91;4976246;28;20467;-79
2022/11/17 10:08:42;;;;;;;5.10;1.70;;;11.00;99.90;;;11.33;100.00;95901.53;4978207;28;20499;-80
2022/11/17 10:11:35;;;;;;;8.83;1.90;;;10.80;99.90;;;11.34;100.00;95911.75;4974290;28;21063;-79
2022/11/17 10:14:14;;;;;;;9.97;1.77;;;10.80;99.90;;;11.39;100.00;95916.25;4974167;28;20515;-79
2022/11/17 10:16:51;;;;;;;3.47;1.60;;;11.00;99.90;;;11.39;100.00;95917.03;4971609;28;20460;-80
2022/11/17 10:19:24;;;;;;;8.07;1.93;;;11.00;99.90;;;11.38;100.00;95923.31;4976157;28;20468;-79
2022/11/17 10:21:58;;;;;;;10.03;1.80;;;11.00;99.90;;;11.36;100.00;95916.72;4971567;28;21014;-79
2022/11/17 10:24:40;;;;;;;6.77;1.80;;;11.00;99.90;;;11.33;100.00;95923.25;4975133;28;20464;-79
2022/11/17 10:27:26;;;;;;;7.83;1.30;;;10.90;99.90;;;11.31;100.00;95925.34;4975988;28;20800;-79
2022/11/17 10:30:05;;;;;;;5.47;1.70;;;10.90;99.90;;;11.27;100.00;95926.84;4972068;28;20473;-79
2022/11/17 10:32:38;;;;;;;4.17;1.20;;;10.90;99.90;;;11.26;100.00;95925.25;4974595;28;20445;-79
2022/11/17 10:35:19;;;;;;;10.23;1.67;;;10.80;99.90;;;11.27;100.00;95924.22;4972875;28;20453;-79
2022/11/17 10:37:56;;;;;;;5.20;1.70;;;10.80;99.90;;;11.27;100.00;95924.22;4970373;28;20479;-79
2022/11/17 10:40:27;;;;;;;8.63;2.07;;;10.80;99.90;;;11.27;100.00;95932.09;4971054;28;20480;-79
2022/11/17 10:43:23;;;;;;;9.33;1.90;;;10.80;99.90;;;11.34;100.00;95930.06;4973659;28;20474;-79
2022/11/17 10:45:58;;;;;;;6.27;1.47;;;10.90;99.90;;;11.30;100.00;95928.97;4969406;28;20475;-79
2022/11/17 10:48:33;;;;;;;8.53;1.77;;;10.80;99.90;;;11.33;100.00;95914.59;4971890;28;20516;-79
2022/11/17 10:51:08;;;;;;;9.97;2.00;;;10.80;99.90;;;11.37;100.00;95924.34;4967723;28;21014;-79
2022/11/17 10:53:40;;;;;;;5.50;1.50;;;10.90;99.90;;;11.42;100.00;95923.63;4973654;28;20871;-79
2022/11/17 10:56:20;;;;;;;8.03;1.73;;;11.00;99.90;;;11.42;100.00;95921.78;4972379;28;20461;-79
2022/11/17 10:59:01;;;;;;;11.10;2.03;;;11.00;99.90;;;11.45;100.00;95921.28;4968397;28;20464;-79
2022/11/17 11:01:35;;;;;;;5.40;1.87;;;11.10;99.90;;;11.45;100.00;95910.81;4972002;28;20460;-79
2022/11/17 11:04:07;;;;;;;9.90;1.40;;;11.00;99.90;;;11.46;100.00;95912.41;4967593;28;20456;-79
2022/11/17 11:06:37;;;;;;;5.53;1.23;;;11.00;99.90;;;11.50;100.00;95918.72;4971210;28;20471;-79
2022/11/17 11:09:16;;;;;;;9.17;1.33;;;11.10;99.90;;;11.56;100.00;95907.28;4974277;28;20469;-79